sensor_id;sensor_type;location;lat;lon;timestamp;temperature;humidity
39849;DHT22;25518;47.878;15.914;2023-04-03T00:01:05;3.60;99.90
39849;DHT22;25518;47.878;15.914;2023-04-03T00:03:55;3.50;99.90
39849;DHT22;25518;47.878;15.914;2023-04-03T00:06:45;3.50;99.90
39849;DHT22;25518;47.878;15.914;2023-04-03T00:09:34;3.50;99.90
39849;DHT22;25518;47.878;15.914;2023-04-03T00:12:24;3.50;99.90
39849;DHT22;25518;47.878;15.914;2023-04-03T00:15:14;3.70;99.90
39849;DHT22;25518;47.878;15.914;2023-04-03T00:18:05;3.80;99.90
39849;DHT22;25518;47.878;15.914;2023-04-03T00:20:55;3.70;99.90
39849;DHT22;25518;47.878;15.914;2023-04-03T00:23:44;3.90;99.90
39849;DHT22;25518;47.878;15.914;2023-04-03T00:26:34;3.70;99.90
39849;DHT22;25518;47.878;15.914;2023-04-03T00:29:23;3.90;99.90
39849;DHT22;25518;47.878;15.914;2023-04-03T00:32:14;3.60;99.90
39849;DHT22;25518;47.878;15.914;2023-04-03T00:35:03;3.60;99.90
39849;DHT22;25518;47.878;15.914;2023-04-03T00:37:54;3.70;99.90
39849;DHT22;25518;47.878;15.914;2023-04-03T00:40:47;3.70;99.90
39849;DHT22;25518;47.878;15.914;2023-04-03T00:43:37;3.80;99.90
39849;DHT22;25518;47.878;15.914;2023-04-03T00:46:26;3.80;99.90
39849;DHT22;25518;47.878;15.914;2023-04-03T00:49:16;3.60;99.90
39849;DHT22;25518;47.878;15.914;2023-04-03T00:52:10;3.60;99.90
39849;DHT22;25518;47.878;15.914;2023-04-03T00:55:05;3.60;99.90
39849;DHT22;25518;47.878;15.914;2023-04-03T00:57:56;3.50;99.90
39849;DHT22;25518;47.878;15.914;2023-04-03T01:00:52;3.50;99.90
39849;DHT22;25518;47.878;15.914;2023-04-03T01:03:46;3.60;99.90
39849;DHT22;25518;47.878;15.914;2023-04-03T01:06:37;3.50;99.90
39849;DHT22;25518;47.878;15.914;2023-04-03T01:09:28;3.50;99.90
39849;DHT22;25518;47.878;15.914;2023-04-03T01:12:23;3.60;99.90
39849;DHT22;25518;47.878;15.914;2023-04-03T01:15:21;3.50;99.90
39849;DHT22;25518;47.878;15.914;2023-04-03T01:18:12;3.50;99.90
39849;DHT22;25518;47.878;15.914;2023-04-03T01:24:08;3.40;99.90
39849;DHT22;25518;47.878;15.914;2023-04-03T01:27:04;3.30;99.90
39849;DHT22;25518;47.878;15.914;2023-04-03T01:29:54;3.30;99.90
39849;DHT22;25518;47.878;15.914;2023-04-03T01:32:45;3.20;99.90
39849;DHT22;25518;47.878;15.914;2023-04-03T01:35:35;3.30;99.90
39849;DHT22;25518;47.878;15.914;2023-04-03T01:38:25;3.30;99.90
39849;DHT22;25518;47.878;15.914;2023-04-03T01:41:15;3.40;99.90
39849;DHT22;25518;47.878;15.914;2023-04-03T01:44:05;3.40;99.90
39849;DHT22;25518;47.878;15.914;2023-04-03T01:46:55;3.40;99.90
39849;DHT22;25518;47.878;15.914;2023-04-03T01:49:45;3.30;99.90
39849;DHT22;25518;47.878;15.914;2023-04-03T01:52:34;3.20;99.90
39849;DHT22;25518;47.878;15.914;2023-04-03T01:55:24;3.50;99.90
39849;DHT22;25518;47.878;15.914;2023-04-03T01:58:14;3.50;99.90
39849;DHT22;25518;47.878;15.914;2023-04-03T02:01:04;3.50;99.90
39849;DHT22;25518;47.878;15.914;2023-04-03T02:03:53;3.30;99.90
39849;DHT22;25518;47.878;15.914;2023-04-03T02:06:43;3.30;99.90
39849;DHT22;25518;47.878;15.914;2023-04-03T02:09:33;3.40;99.90
39849;DHT22;25518;47.878;15.914;2023-04-03T02:12:23;3.30;99.90
39849;DHT22;25518;47.878;15.914;2023-04-03T02:15:13;3.20;99.90
39849;DHT22;25518;47.878;15.914;2023-04-03T02:18:02;2.90;99.90
39849;DHT22;25518;47.878;15.914;2023-04-03T02:20:52;3.50;99.90
39849;DHT22;25518;47.878;15.914;2023-04-03T02:23:41;3.40;99.90
39849;DHT22;25518;47.878;15.914;2023-04-03T02:26:31;3.30;99.90
39849;DHT22;25518;47.878;15.914;2023-04-03T02:29:21;3.40;99.90
39849;DHT22;25518;47.878;15.914;2023-04-03T02:32:10;3.50;99.90
39849;DHT22;25518;47.878;15.914;2023-04-03T02:35:00;3.50;99.90
39849;DHT22;25518;47.878;15.914;2023-04-03T02:37:50;3.70;99.90
39849;DHT22;25518;47.878;15.914;2023-04-03T02:40:40;3.70;99.90
39849;DHT22;25518;47.878;15.914;2023-04-03T02:43:29;3.40;99.90
39849;DHT22;25518;47.878;15.914;2023-04-03T02:46:19;3.50;99.90
39849;DHT22;25518;47.878;15.914;2023-04-03T02:49:09;3.50;99.90
39849;DHT22;25518;47.878;15.914;2023-04-03T02:51:59;3.50;99.90
39849;DHT22;25518;47.878;15.914;2023-04-03T02:54:48;3.50;99.90
39849;DHT22;25518;47.878;15.914;2023-04-03T02:57:38;3.40;99.90
39849;DHT22;25518;47.878;15.914;2023-04-03T03:00:27;3.50;99.90
39849;DHT22;25518;47.878;15.914;2023-04-03T03:20:46;3.30;99.90
39849;DHT22;25518;47.878;15.914;2023-04-03T03:23:36;3.20;99.90
39849;DHT22;25518;47.878;15.914;2023-04-03T03:26:26;3.40;99.90
39849;DHT22;25518;47.878;15.914;2023-04-03T03:29:15;3.20;99.90
39849;DHT22;25518;47.878;15.914;2023-04-03T03:32:05;3.50;99.90
39849;DHT22;25518;47.878;15.914;2023-04-03T03:34:55;3.50;99.90
39849;DHT22;25518;47.878;15.914;2023-04-03T03:37:45;3.30;99.90
39849;DHT22;25518;47.878;15.914;2023-04-03T03:40:34;3.30;99.90
39849;DHT22;25518;47.878;15.914;2023-04-03T03:43:24;3.30;99.90
39849;DHT22;25518;47.878;15.914;2023-04-03T03:46:14;3.20;99.90
39849;DHT22;25518;47.878;15.914;2023-04-03T03:49:04;3.30;99.90
39849;DHT22;25518;47.878;15.914;2023-04-03T03:51:54;3.20;99.90
39849;DHT22;25518;47.878;15.914;2023-04-03T03:54:44;3.20;99.90
39849;DHT22;25518;47.878;15.914;2023-04-03T03:57:34;2.30;99.90
39849;DHT22;25518;47.878;15.914;2023-04-03T04:00:24;3.30;99.90
39849;DHT22;25518;47.878;15.914;2023-04-03T04:03:13;3.40;99.90
39849;DHT22;25518;47.878;15.914;2023-04-03T04:06:03;3.50;99.90
39849;DHT22;25518;47.878;15.914;2023-04-03T04:08:53;3.40;99.90
39849;DHT22;25518;47.878;15.914;2023-04-03T04:11:43;3.40;99.90
39849;DHT22;25518;47.878;15.914;2023-04-03T04:14:32;3.50;99.90
39849;DHT22;25518;47.878;15.914;2023-04-03T04:17:22;3.60;99.90
39849;DHT22;25518;47.878;15.914;2023-04-03T04:20:12;3.50;99.90
39849;DHT22;25518;47.878;15.914;2023-04-03T04:23:01;3.40;99.90
39849;DHT22;25518;47.878;15.914;2023-04-03T04:25:51;3.30;99.90
39849;DHT22;25518;47.878;15.914;2023-04-03T04:28:41;3.20;99.90
39849;DHT22;25518;47.878;15.914;2023-04-03T04:31:30;3.30;99.90
39849;DHT22;25518;47.878;15.914;2023-04-03T04:34:20;3.10;99.90
39849;DHT22;25518;47.878;15.914;2023-04-03T04:37:10;2.00;99.90
39849;DHT22;25518;47.878;15.914;2023-04-03T04:39:59;3.10;99.90
39849;DHT22;25518;47.878;15.914;2023-04-03T04:42:49;3.10;99.90
39849;DHT22;25518;47.878;15.914;2023-04-03T04:45:39;3.10;99.90
39849;DHT22;25518;47.878;15.914;2023-04-03T04:48:29;3.00;99.90
39849;DHT22;25518;47.878;15.914;2023-04-03T04:51:19;3.00;99.90
39849;DHT22;25518;47.878;15.914;2023-04-03T04:54:08;2.90;99.90
39849;DHT22;25518;47.878;15.914;2023-04-03T04:56:58;3.10;99.90
39849;DHT22;25518;47.878;15.914;2023-04-03T04:59:47;3.00;99.90
39849;DHT22;25518;47.878;15.914;2023-04-03T05:02:37;3.20;99.90
39849;DHT22;25518;47.878;15.914;2023-04-03T05:05:26;3.00;99.90
39849;DHT22;25518;47.878;15.914;2023-04-03T05:08:16;3.00;99.90
39849;DHT22;25518;47.878;15.914;2023-04-03T05:11:06;3.00;99.90
39849;DHT22;25518;47.878;15.914;2023-04-03T05:13:56;3.10;99.90
39849;DHT22;25518;47.878;15.914;2023-04-03T05:16:46;3.20;99.90
39849;DHT22;25518;47.878;15.914;2023-04-03T05:19:36;3.20;99.90
39849;DHT22;25518;47.878;15.914;2023-04-03T05:22:26;3.20;99.90
39849;DHT22;25518;47.878;15.914;2023-04-03T05:25:16;3.20;99.90
39849;DHT22;25518;47.878;15.914;2023-04-03T05:28:06;3.10;99.90
39849;DHT22;25518;47.878;15.914;2023-04-03T05:30:57;3.20;99.90
39849;DHT22;25518;47.878;15.914;2023-04-03T05:33:48;3.00;99.90
39849;DHT22;25518;47.878;15.914;2023-04-03T05:36:38;3.10;99.90
39849;DHT22;25518;47.878;15.914;2023-04-03T05:39:28;2.90;99.90
39849;DHT22;25518;47.878;15.914;2023-04-03T05:42:18;2.90;99.90
39849;DHT22;25518;47.878;15.914;2023-04-03T05:45:07;3.00;99.90
39849;DHT22;25518;47.878;15.914;2023-04-03T05:47:58;3.10;99.90
39849;DHT22;25518;47.878;15.914;2023-04-03T05:50:47;3.10;99.90
39849;DHT22;25518;47.878;15.914;2023-04-03T05:53:37;3.20;99.90
39849;DHT22;25518;47.878;15.914;2023-04-03T05:56:27;1.10;99.90
39849;DHT22;25518;47.878;15.914;2023-04-03T05:59:17;2.40;99.90
39849;DHT22;25518;47.878;15.914;2023-04-03T06:02:08;2.90;99.90
39849;DHT22;25518;47.878;15.914;2023-04-03T06:04:58;2.90;99.90
39849;DHT22;25518;47.878;15.914;2023-04-03T06:07:48;3.10;99.90
39849;DHT22;25518;47.878;15.914;2023-04-03T06:10:38;2.50;99.90
39849;DHT22;25518;47.878;15.914;2023-04-03T06:13:29;3.00;99.90
39849;DHT22;25518;47.878;15.914;2023-04-03T06:16:19;2.60;99.90
39849;DHT22;25518;47.878;15.914;2023-04-03T06:19:08;2.80;99.90
39849;DHT22;25518;47.878;15.914;2023-04-03T06:21:58;2.80;99.90
39849;DHT22;25518;47.878;15.914;2023-04-03T06:24:48;2.80;99.90
39849;DHT22;25518;47.878;15.914;2023-04-03T06:27:38;2.80;99.90
39849;DHT22;25518;47.878;15.914;2023-04-03T06:30:28;2.90;99.90
39849;DHT22;25518;47.878;15.914;2023-04-03T06:33:17;2.90;99.90
39849;DHT22;25518;47.878;15.914;2023-04-03T06:36:09;3.00;99.90
39849;DHT22;25518;47.878;15.914;2023-04-03T06:38:59;2.90;99.90
39849;DHT22;25518;47.878;15.914;2023-04-03T06:41:50;2.90;99.90
39849;DHT22;25518;47.878;15.914;2023-04-03T06:44:40;3.00;99.90
39849;DHT22;25518;47.878;15.914;2023-04-03T06:47:30;3.10;99.90
39849;DHT22;25518;47.878;15.914;2023-04-03T06:50:19;3.00;99.90
39849;DHT22;25518;47.878;15.914;2023-04-03T06:53:10;3.00;99.90
39849;DHT22;25518;47.878;15.914;2023-04-03T06:55:59;3.00;99.90
39849;DHT22;25518;47.878;15.914;2023-04-03T06:58:49;2.90;99.90
39849;DHT22;25518;47.878;15.914;2023-04-03T07:01:41;2.90;99.90
39849;DHT22;25518;47.878;15.914;2023-04-03T07:04:31;2.90;99.90
39849;DHT22;25518;47.878;15.914;2023-04-03T07:07:21;2.90;99.90
39849;DHT22;25518;47.878;15.914;2023-04-03T07:10:10;2.90;99.90
39849;DHT22;25518;47.878;15.914;2023-04-03T07:13:00;3.00;99.90
39849;DHT22;25518;47.878;15.914;2023-04-03T07:15:51;3.20;99.90
39849;DHT22;25518;47.878;15.914;2023-04-03T07:18:40;3.00;99.90
39849;DHT22;25518;47.878;15.914;2023-04-03T07:21:31;3.00;99.90
39849;DHT22;25518;47.878;15.914;2023-04-03T07:24:21;2.90;99.90
39849;DHT22;25518;47.878;15.914;2023-04-03T07:27:11;3.00;99.90
39849;DHT22;25518;47.878;15.914;2023-04-03T07:30:02;3.10;99.90
39849;DHT22;25518;47.878;15.914;2023-04-03T07:32:52;3.10;99.90
39849;DHT22;25518;47.878;15.914;2023-04-03T07:35:43;3.20;99.90
39849;DHT22;25518;47.878;15.914;2023-04-03T07:38:34;3.00;99.90
39849;DHT22;25518;47.878;15.914;2023-04-03T07:41:24;3.00;99.90
39849;DHT22;25518;47.878;15.914;2023-04-03T07:44:14;3.20;99.90
39849;DHT22;25518;47.878;15.914;2023-04-03T07:47:04;3.10;99.90
39849;DHT22;25518;47.878;15.914;2023-04-03T07:49:54;3.00;99.90
39849;DHT22;25518;47.878;15.914;2023-04-03T07:52:44;3.10;99.90
39849;DHT22;25518;47.878;15.914;2023-04-03T07:55:34;3.10;99.90
39849;DHT22;25518;47.878;15.914;2023-04-03T07:58:30;3.10;99.90
39849;DHT22;25518;47.878;15.914;2023-04-03T08:01:19;3.20;99.90
39849;DHT22;25518;47.878;15.914;2023-04-03T08:04:10;1.70;99.90
39849;DHT22;25518;47.878;15.914;2023-04-03T08:06:59;2.90;99.90
39849;DHT22;25518;47.878;15.914;2023-04-03T08:09:49;2.70;99.90
39849;DHT22;25518;47.878;15.914;2023-04-03T08:12:39;2.20;99.90
39849;DHT22;25518;47.878;15.914;2023-04-03T08:15:30;2.70;99.90
39849;DHT22;25518;47.878;15.914;2023-04-03T08:18:20;2.80;99.90
39849;DHT22;25518;47.878;15.914;2023-04-03T08:21:12;2.80;99.90
39849;DHT22;25518;47.878;15.914;2023-04-03T08:24:02;2.60;99.90
39849;DHT22;25518;47.878;15.914;2023-04-03T08:26:53;2.60;99.90
39849;DHT22;25518;47.878;15.914;2023-04-03T08:29:44;2.80;99.90
39849;DHT22;25518;47.878;15.914;2023-04-03T08:32:34;2.70;99.90
39849;DHT22;25518;47.878;15.914;2023-04-03T08:35:25;2.70;99.90
39849;DHT22;25518;47.878;15.914;2023-04-03T08:38:15;2.70;99.90
39849;DHT22;25518;47.878;15.914;2023-04-03T08:41:20;2.60;99.90
39849;DHT22;25518;47.878;15.914;2023-04-03T08:44:25;2.60;99.90
39849;DHT22;25518;47.878;15.914;2023-04-03T08:47:24;2.80;99.90
39849;DHT22;25518;47.878;15.914;2023-04-03T08:50:17;3.00;99.90
39849;DHT22;25518;47.878;15.914;2023-04-03T08:53:23;2.90;99.90
39849;DHT22;25518;47.878;15.914;2023-04-03T08:56:16;2.90;99.90
39849;DHT22;25518;47.878;15.914;2023-04-03T08:59:14;3.00;99.90
39849;DHT22;25518;47.878;15.914;2023-04-03T09:05:18;2.70;99.90
39849;DHT22;25518;47.878;15.914;2023-04-03T09:08:43;3.20;99.90
39849;DHT22;25518;47.878;15.914;2023-04-03T09:11:36;3.30;99.90
39849;DHT22;25518;47.878;15.914;2023-04-03T09:14:32;3.40;99.90
39849;DHT22;25518;47.878;15.914;2023-04-03T09:23:27;3.70;99.90
39849;DHT22;25518;47.878;15.914;2023-04-03T09:26:36;3.80;99.90
39849;DHT22;25518;47.878;15.914;2023-04-03T09:29:29;3.70;99.90
39849;DHT22;25518;47.878;15.914;2023-04-03T09:32:35;3.70;99.90
39849;DHT22;25518;47.878;15.914;2023-04-03T09:35:27;3.80;99.90
39849;DHT22;25518;47.878;15.914;2023-04-03T09:38:21;3.80;99.90
39849;DHT22;25518;47.878;15.914;2023-04-03T09:41:17;3.40;99.90
39849;DHT22;25518;47.878;15.914;2023-04-03T09:44:26;3.60;99.90
39849;DHT22;25518;47.878;15.914;2023-04-03T09:47:36;3.70;99.90
39849;DHT22;25518;47.878;15.914;2023-04-03T09:50:25;3.50;99.90
39849;DHT22;25518;47.878;15.914;2023-04-03T09:53:36;3.20;99.90
39849;DHT22;25518;47.878;15.914;2023-04-03T09:56:28;3.50;99.90
39849;DHT22;25518;47.878;15.914;2023-04-03T09:59:19;3.70;99.90
39849;DHT22;25518;47.878;15.914;2023-04-03T10:02:37;4.10;99.90
39849;DHT22;25518;47.878;15.914;2023-04-03T10:08:27;3.20;99.90
39849;DHT22;25518;47.878;15.914;2023-04-03T10:11:18;2.60;99.90
39849;DHT22;25518;47.878;15.914;2023-04-03T10:14:16;4.90;99.90
39849;DHT22;25518;47.878;15.914;2023-04-03T10:23:28;3.20;99.90
39849;DHT22;25518;47.878;15.914;2023-04-03T10:32:42;1.50;99.90
39849;DHT22;25518;47.878;15.914;2023-04-03T10:56:40;3.30;99.90
39849;DHT22;25518;47.878;15.914;2023-04-03T11:00:04;3.40;99.90
39849;DHT22;25518;47.878;15.914;2023-04-03T11:03:04;3.50;99.90
39849;DHT22;25518;47.878;15.914;2023-04-03T11:05:55;3.40;99.90
39849;DHT22;25518;47.878;15.914;2023-04-03T11:09:00;3.40;99.90
39849;DHT22;25518;47.878;15.914;2023-04-03T11:12:00;3.40;99.90
39849;DHT22;25518;47.878;15.914;2023-04-03T11:14:52;3.20;99.90
39849;DHT22;25518;47.878;15.914;2023-04-03T11:17:48;3.40;99.90
39849;DHT22;25518;47.878;15.914;2023-04-03T11:20:44;3.20;99.90
39849;DHT22;25518;47.878;15.914;2023-04-03T11:23:39;3.30;99.90
39849;DHT22;25518;47.878;15.914;2023-04-03T11:26:35;3.40;99.90
39849;DHT22;25518;47.878;15.914;2023-04-03T11:29:34;3.40;99.90
39849;DHT22;25518;47.878;15.914;2023-04-03T11:35:22;2.50;99.90
39849;DHT22;25518;47.878;15.914;2023-04-03T11:38:34;3.30;99.90
39849;DHT22;25518;47.878;15.914;2023-04-03T11:41:29;3.40;99.90
39849;DHT22;25518;47.878;15.914;2023-04-03T11:44:37;3.30;99.90
39849;DHT22;25518;47.878;15.914;2023-04-03T11:47:46;3.30;99.90
39849;DHT22;25518;47.878;15.914;2023-04-03T11:53:30;3.30;99.90
39849;DHT22;25518;47.878;15.914;2023-04-03T11:59:21;3.30;99.90
39849;DHT22;25518;47.878;15.914;2023-04-03T12:02:35;3.40;99.90
39849;DHT22;25518;47.878;15.914;2023-04-03T12:05:28;3.50;99.90
39849;DHT22;25518;47.878;15.914;2023-04-03T12:08:27;3.40;99.90
39849;DHT22;25518;47.878;15.914;2023-04-03T12:11:30;3.80;99.90
39849;DHT22;25518;47.878;15.914;2023-04-03T12:14:23;3.80;99.90
39849;DHT22;25518;47.878;15.914;2023-04-03T12:17:30;4.70;99.90
39849;DHT22;25518;47.878;15.914;2023-04-03T12:20:56;4.50;99.90
39849;DHT22;25518;47.878;15.914;2023-04-03T12:30:18;4.30;99.90
39849;DHT22;25518;47.878;15.914;2023-04-03T12:36:17;4.00;99.90
39849;DHT22;25518;47.878;15.914;2023-04-03T12:45:28;3.90;99.90
39849;DHT22;25518;47.878;15.914;2023-04-03T12:48:25;4.10;99.90
39849;DHT22;25518;47.878;15.914;2023-04-03T12:51:20;3.90;99.90
39849;DHT22;25518;47.878;15.914;2023-04-03T12:54:16;3.70;99.90
39849;DHT22;25518;47.878;15.914;2023-04-03T13:00:00;3.50;99.90
39849;DHT22;25518;47.878;15.914;2023-04-03T13:03:22;4.00;99.90
39849;DHT22;25518;47.878;15.914;2023-04-03T13:06:47;4.40;99.90
39849;DHT22;25518;47.878;15.914;2023-04-03T13:09:29;4.60;99.90
39849;DHT22;25518;47.878;15.914;2023-04-03T13:12:18;4.00;99.90
39849;DHT22;25518;47.878;15.914;2023-04-03T13:15:16;3.80;99.90
39849;DHT22;25518;47.878;15.914;2023-04-03T13:18:22;3.70;99.90
39849;DHT22;25518;47.878;15.914;2023-04-03T13:21:16;3.60;99.90
39849;DHT22;25518;47.878;15.914;2023-04-03T13:24:06;3.70;99.90
39849;DHT22;25518;47.878;15.914;2023-04-03T13:26:56;4.00;99.90
39849;DHT22;25518;47.878;15.914;2023-04-03T13:29:51;3.70;99.90
39849;DHT22;25518;47.878;15.914;2023-04-03T13:32:43;3.90;99.90
39849;DHT22;25518;47.878;15.914;2023-04-03T13:35:35;3.90;99.90
39849;DHT22;25518;47.878;15.914;2023-04-03T13:38:28;4.10;99.90
39849;DHT22;25518;47.878;15.914;2023-04-03T13:41:29;4.00;99.90
39849;DHT22;25518;47.878;15.914;2023-04-03T13:47:18;3.80;99.90
39849;DHT22;25518;47.878;15.914;2023-04-03T13:53:12;3.60;99.90
39849;DHT22;25518;47.878;15.914;2023-04-03T14:01:47;4.00;99.90
39849;DHT22;25518;47.878;15.914;2023-04-03T14:07:33;3.90;99.90
39849;DHT22;25518;47.878;15.914;2023-04-03T14:10:23;3.80;99.90
39849;DHT22;25518;47.878;15.914;2023-04-03T14:13:15;4.10;99.90
39849;DHT22;25518;47.878;15.914;2023-04-03T14:16:05;4.10;99.90
39849;DHT22;25518;47.878;15.914;2023-04-03T14:18:54;4.20;99.90
39849;DHT22;25518;47.878;15.914;2023-04-03T14:21:44;4.10;99.90
39849;DHT22;25518;47.878;15.914;2023-04-03T14:24:34;4.80;99.90
39849;DHT22;25518;47.878;15.914;2023-04-03T14:27:27;5.80;99.70
39849;DHT22;25518;47.878;15.914;2023-04-03T14:30:24;5.80;99.70
39849;DHT22;25518;47.878;15.914;2023-04-03T14:33:17;5.60;98.40
39849;DHT22;25518;47.878;15.914;2023-04-03T14:39:07;5.70;96.60
39849;DHT22;25518;47.878;15.914;2023-04-03T14:41:57;4.80;96.40
39849;DHT22;25518;47.878;15.914;2023-04-03T14:44:48;4.00;96.90
39849;DHT22;25518;47.878;15.914;2023-04-03T14:47:44;3.80;99.30
39849;DHT22;25518;47.878;15.914;2023-04-03T14:50:35;3.80;99.30
39849;DHT22;25518;47.878;15.914;2023-04-03T14:53:25;4.10;98.70
39849;DHT22;25518;47.878;15.914;2023-04-03T14:59:11;4.00;99.50
39849;DHT22;25518;47.878;15.914;2023-04-03T15:02:01;4.30;99.60
39849;DHT22;25518;47.878;15.914;2023-04-03T15:04:50;4.30;97.80
39849;DHT22;25518;47.878;15.914;2023-04-03T15:07:43;4.20;99.90
39849;DHT22;25518;47.878;15.914;2023-04-03T15:10:34;4.40;99.90
39849;DHT22;25518;47.878;15.914;2023-04-03T15:13:24;4.60;98.70
39849;DHT22;25518;47.878;15.914;2023-04-03T15:16:18;4.30;97.90
39849;DHT22;25518;47.878;15.914;2023-04-03T15:19:09;4.20;97.90
39849;DHT22;25518;47.878;15.914;2023-04-03T15:21:59;4.00;98.60
39849;DHT22;25518;47.878;15.914;2023-04-03T15:24:49;3.60;99.10
39849;DHT22;25518;47.878;15.914;2023-04-03T15:27:39;3.70;99.60
39849;DHT22;25518;47.878;15.914;2023-04-03T15:30:30;3.50;97.80
39849;DHT22;25518;47.878;15.914;2023-04-03T15:33:21;3.40;98.20
39849;DHT22;25518;47.878;15.914;2023-04-03T15:36:11;3.40;99.90
39849;DHT22;25518;47.878;15.914;2023-04-03T15:39:01;3.30;99.90
39849;DHT22;25518;47.878;15.914;2023-04-03T15:41:50;3.40;98.30
39849;DHT22;25518;47.878;15.914;2023-04-03T15:44:41;3.40;98.50
39849;DHT22;25518;47.878;15.914;2023-04-03T15:47:31;3.40;99.30
39849;DHT22;25518;47.878;15.914;2023-04-03T15:50:21;3.30;98.40
39849;DHT22;25518;47.878;15.914;2023-04-03T15:53:13;3.40;96.70
39849;DHT22;25518;47.878;15.914;2023-04-03T15:56:03;3.30;98.30
39849;DHT22;25518;47.878;15.914;2023-04-03T15:58:53;3.20;97.60
39849;DHT22;25518;47.878;15.914;2023-04-03T16:01:43;2.80;98.30
39849;DHT22;25518;47.878;15.914;2023-04-03T16:04:34;3.50;97.60
39849;DHT22;25518;47.878;15.914;2023-04-03T16:07:24;3.60;98.10
39849;DHT22;25518;47.878;15.914;2023-04-03T16:18:15;3.40;98.40
39849;DHT22;25518;47.878;15.914;2023-04-03T16:21:06;-0.10;99.10
39849;DHT22;25518;47.878;15.914;2023-04-03T16:23:58;2.10;99.60
39849;DHT22;25518;47.878;15.914;2023-04-03T16:26:49;5.60;99.90
39849;DHT22;25518;47.878;15.914;2023-04-03T16:29:39;6.10;99.90
39849;DHT22;25518;47.878;15.914;2023-04-03T16:32:30;3.50;98.50
39849;DHT22;25518;47.878;15.914;2023-04-03T16:35:23;2.90;99.40
39849;DHT22;25518;47.878;15.914;2023-04-03T16:38:13;3.00;99.80
39849;DHT22;25518;47.878;15.914;2023-04-03T16:41:04;-0.50;98.40
39849;DHT22;25518;47.878;15.914;2023-04-03T16:43:54;2.70;98.60
39849;DHT22;25518;47.878;15.914;2023-04-03T16:46:45;3.50;99.50
39849;DHT22;25518;47.878;15.914;2023-04-03T16:49:35;2.90;98.70
39849;DHT22;25518;47.878;15.914;2023-04-03T16:52:25;-1.00;97.50
39849;DHT22;25518;47.878;15.914;2023-04-03T16:55:15;2.50;99.70
39849;DHT22;25518;47.878;15.914;2023-04-03T16:58:05;-0.10;97.70
39849;DHT22;25518;47.878;15.914;2023-04-03T17:00:55;1.70;98.90
39849;DHT22;25518;47.878;15.914;2023-04-03T17:03:45;4.40;99.90
39849;DHT22;25518;47.878;15.914;2023-04-03T17:06:35;2.30;99.80
39849;DHT22;25518;47.878;15.914;2023-04-03T17:09:26;2.30;99.90
39849;DHT22;25518;47.878;15.914;2023-04-03T17:12:16;-0.10;98.80
39849;DHT22;25518;47.878;15.914;2023-04-03T17:15:07;1.20;98.90
39849;DHT22;25518;47.878;15.914;2023-04-03T17:17:56;2.70;99.30
39849;DHT22;25518;47.878;15.914;2023-04-03T17:20:51;1.00;99.90
39849;DHT22;25518;47.878;15.914;2023-04-03T17:23:46;3.70;99.90
39849;DHT22;25518;47.878;15.914;2023-04-03T17:26:36;0.10;99.90
39849;DHT22;25518;47.878;15.914;2023-04-03T17:29:26;3.80;99.90
39849;DHT22;25518;47.878;15.914;2023-04-03T17:37:36;2.20;99.90
39849;DHT22;25518;47.878;15.914;2023-04-03T17:40:26;4.10;99.90
39849;DHT22;25518;47.878;15.914;2023-04-03T17:43:17;3.10;99.90
39849;DHT22;25518;47.878;15.914;2023-04-03T17:46:08;1.10;99.90
39849;DHT22;25518;47.878;15.914;2023-04-03T17:48:58;3.70;99.90
39849;DHT22;25518;47.878;15.914;2023-04-03T17:51:49;2.10;99.90
39849;DHT22;25518;47.878;15.914;2023-04-03T17:54:38;2.50;99.90
39849;DHT22;25518;47.878;15.914;2023-04-03T17:57:28;0.40;99.90
39849;DHT22;25518;47.878;15.914;2023-04-03T18:00:20;0.40;99.20
39849;DHT22;25518;47.878;15.914;2023-04-03T18:03:09;2.00;99.30
39849;DHT22;25518;47.878;15.914;2023-04-03T18:06:04;2.30;99.90
39849;DHT22;25518;47.878;15.914;2023-04-03T18:08:59;2.20;99.90
39849;DHT22;25518;47.878;15.914;2023-04-03T18:11:50;2.10;99.90
39849;DHT22;25518;47.878;15.914;2023-04-03T18:14:40;2.10;99.90
39849;DHT22;25518;47.878;15.914;2023-04-03T18:17:30;2.10;99.90
39849;DHT22;25518;47.878;15.914;2023-04-03T18:20:20;2.10;99.90
39849;DHT22;25518;47.878;15.914;2023-04-03T18:23:10;2.00;99.30
39849;DHT22;25518;47.878;15.914;2023-04-03T18:26:02;1.90;99.90
39849;DHT22;25518;47.878;15.914;2023-04-03T18:28:57;1.90;99.00
39849;DHT22;25518;47.878;15.914;2023-04-03T18:31:51;1.90;99.90
39849;DHT22;25518;47.878;15.914;2023-04-03T18:34:42;2.00;99.90
39849;DHT22;25518;47.878;15.914;2023-04-03T18:37:31;1.90;98.90
39849;DHT22;25518;47.878;15.914;2023-04-03T18:40:21;1.90;99.90
39849;DHT22;25518;47.878;15.914;2023-04-03T18:43:11;-0.70;99.10
39849;DHT22;25518;47.878;15.914;2023-04-03T18:46:01;1.90;99.90
39849;DHT22;25518;47.878;15.914;2023-04-03T18:48:54;-1.10;99.80
39849;DHT22;25518;47.878;15.914;2023-04-03T18:51:45;-0.40;99.90
39849;DHT22;25518;47.878;15.914;2023-04-03T18:54:36;0.90;99.90
39849;DHT22;25518;47.878;15.914;2023-04-03T18:57:26;2.40;99.90
39849;DHT22;25518;47.878;15.914;2023-04-03T19:00:17;1.60;99.90
39849;DHT22;25518;47.878;15.914;2023-04-03T19:03:08;-0.20;99.80
39849;DHT22;25518;47.878;15.914;2023-04-03T19:05:59;-2.00;99.90
39849;DHT22;25518;47.878;15.914;2023-04-03T19:08:49;1.30;99.90
39849;DHT22;25518;47.878;15.914;2023-04-03T19:11:39;-0.50;98.40
39849;DHT22;25518;47.878;15.914;2023-04-03T19:14:29;1.10;99.60
39849;DHT22;25518;47.878;15.914;2023-04-03T19:17:19;-0.10;99.90
39849;DHT22;25518;47.878;15.914;2023-04-03T19:20:10;1.00;99.40
39849;DHT22;25518;47.878;15.914;2023-04-03T19:23:01;3.80;99.90
39849;DHT22;25518;47.878;15.914;2023-04-03T19:26:00;0.20;99.90
39849;DHT22;25518;47.878;15.914;2023-04-03T19:28:51;2.70;99.90
39849;DHT22;25518;47.878;15.914;2023-04-03T19:31:41;2.20;99.90
39849;DHT22;25518;47.878;15.914;2023-04-03T19:34:31;-0.40;99.90
39849;DHT22;25518;47.878;15.914;2023-04-03T19:37:21;3.10;99.90
39849;DHT22;25518;47.878;15.914;2023-04-03T19:40:13;2.00;99.90
39849;DHT22;25518;47.878;15.914;2023-04-03T19:43:03;1.70;99.60
39849;DHT22;25518;47.878;15.914;2023-04-03T19:45:53;1.80;99.90
39849;DHT22;25518;47.878;15.914;2023-04-03T19:48:44;-0.30;99.90
39849;DHT22;25518;47.878;15.914;2023-04-03T19:51:35;1.70;99.90
39849;DHT22;25518;47.878;15.914;2023-04-03T19:54:25;3.20;99.90
39849;DHT22;25518;47.878;15.914;2023-04-03T19:57:15;1.70;99.90
39849;DHT22;25518;47.878;15.914;2023-04-03T20:02:45;1.70;99.90
39849;DHT22;25518;47.878;15.914;2023-04-03T20:05:35;1.20;99.90
39849;DHT22;25518;47.878;15.914;2023-04-03T20:08:26;0.90;99.90
39849;DHT22;25518;47.878;15.914;2023-04-03T20:11:17;1.50;99.90
39849;DHT22;25518;47.878;15.914;2023-04-03T20:14:07;0.80;99.90
39849;DHT22;25518;47.878;15.914;2023-04-03T20:16:57;0.00;99.90